Terminal Aerodrome Forecast
Issued by NWS

Home | Current Version | Previous Version | Text Only | Print | Product List | Glossary On
Versions: 1 2 3 4 5 6 7 8 9 10 11 12 13 14 15 16 17
000
FTUS42 KTBW 271734
TAFLAL
TAF
KLAL 271734Z 2718/2818 08010KT P6SM FEW045 SCT250
     FM280200 09007KT P6SM FEW250
     FM280700 VRB03KT P6SM FEW250
     FM281500 09007KT P6SM SCT040 SCT250=

USA.gov is the U.S. government's official web portal to all federal, state and local government web resources and services.